sensor_id;sensor_type;location;lat;lon;timestamp;P1;durP1;ratioP1;P2;durP2;ratioP2
54743;SDS011;40639;53.170;6.728;2023-07-13T00:02:24;7.28;;;1.80;;
54743;SDS011;40639;53.170;6.728;2023-07-13T00:04:51;4.75;;;2.03;;
54743;SDS011;40639;53.170;6.728;2023-07-13T00:07:18;3.80;;;1.75;;
54743;SDS011;40639;53.170;6.728;2023-07-13T00:09:45;7.38;;;2.00;;
54743;SDS011;40639;53.170;6.728;2023-07-13T00:12:21;8.65;;;2.47;;
54743;SDS011;40639;53.170;6.728;2023-07-13T00:17:15;6.75;;;2.20;;
54743;SDS011;40639;53.170;6.728;2023-07-13T00:19:41;7.80;;;1.92;;
54743;SDS011;40639;53.170;6.728;2023-07-13T00:22:07;9.02;;;2.75;;
54743;SDS011;40639;53.170;6.728;2023-07-13T00:24:33;8.85;;;2.67;;
54743;SDS011;40639;53.170;6.728;2023-07-13T00:27:01;8.10;;;2.33;;
54743;SDS011;40639;53.170;6.728;2023-07-13T00:29:27;8.45;;;2.70;;
54743;SDS011;40639;53.170;6.728;2023-07-13T00:31:53;10.57;;;2.75;;
54743;SDS011;40639;53.170;6.728;2023-07-13T00:34:19;8.68;;;2.53;;
54743;SDS011;40639;53.170;6.728;2023-07-13T00:36:46;7.25;;;2.35;;
54743;SDS011;40639;53.170;6.728;2023-07-13T00:39:12;9.32;;;3.03;;
54743;SDS011;40639;53.170;6.728;2023-07-13T00:41:38;7.78;;;3.03;;
54743;SDS011;40639;53.170;6.728;2023-07-13T00:44:04;6.20;;;2.55;;
54743;SDS011;40639;53.170;6.728;2023-07-13T00:46:33;10.13;;;2.80;;
54743;SDS011;40639;53.170;6.728;2023-07-13T00:49:01;8.50;;;2.60;;
54743;SDS011;40639;53.170;6.728;2023-07-13T00:51:30;8.75;;;2.55;;
54743;SDS011;40639;53.170;6.728;2023-07-13T00:53:57;8.35;;;2.45;;
54743;SDS011;40639;53.170;6.728;2023-07-13T00:56:24;12.10;;;2.63;;
54743;SDS011;40639;53.170;6.728;2023-07-13T00:58:50;8.10;;;2.75;;
54743;SDS011;40639;53.170;6.728;2023-07-13T01:01:17;6.45;;;2.35;;
54743;SDS011;40639;53.170;6.728;2023-07-13T01:03:43;5.88;;;2.42;;
54743;SDS011;40639;53.170;6.728;2023-07-13T01:06:09;10.88;;;2.75;;
54743;SDS011;40639;53.170;6.728;2023-07-13T01:08:36;10.60;;;2.65;;
54743;SDS011;40639;53.170;6.728;2023-07-13T01:11:02;11.23;;;2.65;;
54743;SDS011;40639;53.170;6.728;2023-07-13T01:13:28;8.70;;;2.58;;
54743;SDS011;40639;53.170;6.728;2023-07-13T01:15:55;11.88;;;2.80;;
54743;SDS011;40639;53.170;6.728;2023-07-13T01:18:22;9.80;;;2.92;;
54743;SDS011;40639;53.170;6.728;2023-07-13T01:23:21;13.27;;;2.88;;
54743;SDS011;40639;53.170;6.728;2023-07-13T01:25:48;9.32;;;3.30;;
54743;SDS011;40639;53.170;6.728;2023-07-13T01:28:14;8.38;;;2.80;;
54743;SDS011;40639;53.170;6.728;2023-07-13T01:30:42;8.50;;;2.72;;
54743;SDS011;40639;53.170;6.728;2023-07-13T01:33:10;11.82;;;3.55;;
54743;SDS011;40639;53.170;6.728;2023-07-13T01:35:37;6.07;;;2.60;;
54743;SDS011;40639;53.170;6.728;2023-07-13T01:38:03;10.55;;;2.80;;
54743;SDS011;40639;53.170;6.728;2023-07-13T01:40:29;14.57;;;3.25;;
54743;SDS011;40639;53.170;6.728;2023-07-13T01:42:56;12.88;;;2.70;;
54743;SDS011;40639;53.170;6.728;2023-07-13T01:45:22;8.75;;;2.80;;
54743;SDS011;40639;53.170;6.728;2023-07-13T01:47:48;12.52;;;2.80;;
54743;SDS011;40639;53.170;6.728;2023-07-13T01:50:14;8.93;;;2.72;;
54743;SDS011;40639;53.170;6.728;2023-07-13T01:52:40;10.80;;;2.58;;
54743;SDS011;40639;53.170;6.728;2023-07-13T01:55:06;11.65;;;2.97;;
54743;SDS011;40639;53.170;6.728;2023-07-13T01:57:33;8.85;;;3.35;;
54743;SDS011;40639;53.170;6.728;2023-07-13T01:59:59;11.93;;;3.72;;
54743;SDS011;40639;53.170;6.728;2023-07-13T02:02:25;9.75;;;3.30;;
54743;SDS011;40639;53.170;6.728;2023-07-13T02:04:51;11.27;;;3.03;;
54743;SDS011;40639;53.170;6.728;2023-07-13T02:07:17;10.43;;;3.08;;
54743;SDS011;40639;53.170;6.728;2023-07-13T02:09:44;9.82;;;2.50;;
54743;SDS011;40639;53.170;6.728;2023-07-13T02:12:10;9.30;;;3.40;;
54743;SDS011;40639;53.170;6.728;2023-07-13T02:14:36;9.95;;;2.97;;
54743;SDS011;40639;53.170;6.728;2023-07-13T02:17:02;9.35;;;2.83;;
54743;SDS011;40639;53.170;6.728;2023-07-13T02:19:28;13.35;;;3.63;;
54743;SDS011;40639;53.170;6.728;2023-07-13T02:21:55;14.00;;;3.10;;
54743;SDS011;40639;53.170;6.728;2023-07-13T02:24:21;14.07;;;3.83;;
54743;SDS011;40639;53.170;6.728;2023-07-13T02:26:47;11.30;;;2.72;;
54743;SDS011;40639;53.170;6.728;2023-07-13T02:29:13;15.18;;;3.30;;
54743;SDS011;40639;53.170;6.728;2023-07-13T02:31:39;11.45;;;3.47;;
54743;SDS011;40639;53.170;6.728;2023-07-13T02:34:05;13.85;;;2.85;;
54743;SDS011;40639;53.170;6.728;2023-07-13T02:36:31;12.25;;;3.08;;
54743;SDS011;40639;53.170;6.728;2023-07-13T02:39:00;12.15;;;3.45;;
54743;SDS011;40639;53.170;6.728;2023-07-13T02:41:26;14.68;;;3.53;;
54743;SDS011;40639;53.170;6.728;2023-07-13T02:43:52;10.82;;;3.20;;
54743;SDS011;40639;53.170;6.728;2023-07-13T02:46:19;13.43;;;3.67;;
54743;SDS011;40639;53.170;6.728;2023-07-13T02:48:45;11.10;;;3.90;;
54743;SDS011;40639;53.170;6.728;2023-07-13T02:51:11;12.63;;;3.10;;
54743;SDS011;40639;53.170;6.728;2023-07-13T02:53:37;11.38;;;3.47;;
54743;SDS011;40639;53.170;6.728;2023-07-13T02:56:04;10.52;;;2.95;;
54743;SDS011;40639;53.170;6.728;2023-07-13T02:58:30;7.75;;;3.42;;
54743;SDS011;40639;53.170;6.728;2023-07-13T03:00:57;10.55;;;3.10;;
54743;SDS011;40639;53.170;6.728;2023-07-13T03:03:23;10.50;;;3.15;;
54743;SDS011;40639;53.170;6.728;2023-07-13T03:05:57;7.32;;;2.72;;
54743;SDS011;40639;53.170;6.728;2023-07-13T03:08:25;9.57;;;3.13;;
54743;SDS011;40639;53.170;6.728;2023-07-13T03:11:10;7.22;;;2.88;;
54743;SDS011;40639;53.170;6.728;2023-07-13T03:13:37;8.50;;;2.83;;
54743;SDS011;40639;53.170;6.728;2023-07-13T03:16:03;13.23;;;2.67;;
54743;SDS011;40639;53.170;6.728;2023-07-13T03:18:30;9.30;;;2.53;;
54743;SDS011;40639;53.170;6.728;2023-07-13T03:20:56;8.27;;;2.50;;
54743;SDS011;40639;53.170;6.728;2023-07-13T03:23:22;7.93;;;2.25;;
54743;SDS011;40639;53.170;6.728;2023-07-13T03:25:50;7.63;;;3.00;;
54743;SDS011;40639;53.170;6.728;2023-07-13T03:28:16;9.07;;;3.05;;
54743;SDS011;40639;53.170;6.728;2023-07-13T03:30:42;8.93;;;2.75;;
54743;SDS011;40639;53.170;6.728;2023-07-13T03:33:08;10.50;;;3.58;;
54743;SDS011;40639;53.170;6.728;2023-07-13T03:35:34;11.27;;;2.75;;
54743;SDS011;40639;53.170;6.728;2023-07-13T03:38:00;12.20;;;3.30;;
54743;SDS011;40639;53.170;6.728;2023-07-13T03:40:27;21.58;;;3.22;;
54743;SDS011;40639;53.170;6.728;2023-07-13T03:42:53;9.63;;;2.70;;
54743;SDS011;40639;53.170;6.728;2023-07-13T03:45:19;9.80;;;3.28;;
54743;SDS011;40639;53.170;6.728;2023-07-13T03:47:46;9.40;;;3.35;;
54743;SDS011;40639;53.170;6.728;2023-07-13T03:50:12;10.18;;;3.28;;
54743;SDS011;40639;53.170;6.728;2023-07-13T03:52:38;12.13;;;3.60;;
54743;SDS011;40639;53.170;6.728;2023-07-13T03:55:04;12.27;;;3.08;;
54743;SDS011;40639;53.170;6.728;2023-07-13T03:57:31;12.77;;;3.60;;
54743;SDS011;40639;53.170;6.728;2023-07-13T03:59:57;13.95;;;3.20;;
54743;SDS011;40639;53.170;6.728;2023-07-13T04:02:23;9.30;;;3.35;;
54743;SDS011;40639;53.170;6.728;2023-07-13T04:04:49;9.23;;;3.03;;
54743;SDS011;40639;53.170;6.728;2023-07-13T04:07:16;9.35;;;3.30;;
54743;SDS011;40639;53.170;6.728;2023-07-13T04:09:42;13.25;;;3.70;;
54743;SDS011;40639;53.170;6.728;2023-07-13T04:12:08;14.15;;;3.35;;
54743;SDS011;40639;53.170;6.728;2023-07-13T04:14:34;9.20;;;3.05;;
54743;SDS011;40639;53.170;6.728;2023-07-13T04:17:00;9.60;;;3.05;;
54743;SDS011;40639;53.170;6.728;2023-07-13T04:19:27;12.23;;;3.80;;
54743;SDS011;40639;53.170;6.728;2023-07-13T04:21:53;10.02;;;3.83;;
54743;SDS011;40639;53.170;6.728;2023-07-13T04:24:19;12.73;;;3.50;;
54743;SDS011;40639;53.170;6.728;2023-07-13T04:26:45;12.77;;;3.20;;
54743;SDS011;40639;53.170;6.728;2023-07-13T04:29:11;10.65;;;2.95;;
54743;SDS011;40639;53.170;6.728;2023-07-13T04:31:37;11.30;;;3.40;;
54743;SDS011;40639;53.170;6.728;2023-07-13T04:34:03;11.20;;;3.08;;
54743;SDS011;40639;53.170;6.728;2023-07-13T04:36:30;13.93;;;3.58;;
54743;SDS011;40639;53.170;6.728;2023-07-13T04:38:56;10.68;;;3.25;;
54743;SDS011;40639;53.170;6.728;2023-07-13T04:41:22;10.05;;;3.63;;
54743;SDS011;40639;53.170;6.728;2023-07-13T04:43:48;12.55;;;3.53;;
54743;SDS011;40639;53.170;6.728;2023-07-13T04:46:15;14.43;;;3.97;;
54743;SDS011;40639;53.170;6.728;2023-07-13T04:48:43;9.05;;;3.42;;
54743;SDS011;40639;53.170;6.728;2023-07-13T04:51:09;18.42;;;3.63;;
54743;SDS011;40639;53.170;6.728;2023-07-13T04:53:36;9.98;;;3.05;;
54743;SDS011;40639;53.170;6.728;2023-07-13T04:56:02;12.55;;;3.28;;
54743;SDS011;40639;53.170;6.728;2023-07-13T04:58:28;10.00;;;2.78;;
54743;SDS011;40639;53.170;6.728;2023-07-13T05:01:01;11.18;;;3.33;;
54743;SDS011;40639;53.170;6.728;2023-07-13T05:03:28;10.75;;;3.40;;
54743;SDS011;40639;53.170;6.728;2023-07-13T05:06:03;14.52;;;3.75;;
54743;SDS011;40639;53.170;6.728;2023-07-13T05:08:30;10.67;;;3.83;;
54743;SDS011;40639;53.170;6.728;2023-07-13T05:10:56;12.85;;;4.07;;
54743;SDS011;40639;53.170;6.728;2023-07-13T05:13:22;11.80;;;3.42;;
54743;SDS011;40639;53.170;6.728;2023-07-13T05:15:55;9.32;;;3.17;;
54743;SDS011;40639;53.170;6.728;2023-07-13T05:18:21;9.13;;;3.33;;
54743;SDS011;40639;53.170;6.728;2023-07-13T05:20:54;10.88;;;4.05;;
54743;SDS011;40639;53.170;6.728;2023-07-13T05:23:20;10.73;;;3.60;;
54743;SDS011;40639;53.170;6.728;2023-07-13T05:25:46;6.38;;;3.67;;
54743;SDS011;40639;53.170;6.728;2023-07-13T05:28:12;9.23;;;2.80;;
54743;SDS011;40639;53.170;6.728;2023-07-13T05:30:38;9.02;;;3.20;;
54743;SDS011;40639;53.170;6.728;2023-07-13T05:33:04;9.32;;;3.28;;
54743;SDS011;40639;53.170;6.728;2023-07-13T05:35:31;10.05;;;2.83;;
54743;SDS011;40639;53.170;6.728;2023-07-13T05:37:57;10.93;;;3.15;;
54743;SDS011;40639;53.170;6.728;2023-07-13T05:40:23;14.25;;;3.28;;
54743;SDS011;40639;53.170;6.728;2023-07-13T05:42:49;9.82;;;3.40;;
54743;SDS011;40639;53.170;6.728;2023-07-13T05:45:15;9.40;;;3.17;;
54743;SDS011;40639;53.170;6.728;2023-07-13T05:47:41;9.43;;;3.08;;
54743;SDS011;40639;53.170;6.728;2023-07-13T05:50:08;9.25;;;3.17;;
54743;SDS011;40639;53.170;6.728;2023-07-13T05:52:34;11.40;;;3.70;;
54743;SDS011;40639;53.170;6.728;2023-07-13T05:55:01;8.23;;;2.88;;
54743;SDS011;40639;53.170;6.728;2023-07-13T05:57:28;10.82;;;2.97;;
54743;SDS011;40639;53.170;6.728;2023-07-13T05:59:54;8.00;;;2.40;;
54743;SDS011;40639;53.170;6.728;2023-07-13T06:02:20;9.82;;;3.15;;
54743;SDS011;40639;53.170;6.728;2023-07-13T06:04:46;10.15;;;3.10;;
54743;SDS011;40639;53.170;6.728;2023-07-13T06:07:12;8.38;;;2.72;;
54743;SDS011;40639;53.170;6.728;2023-07-13T06:09:38;7.55;;;2.60;;
54743;SDS011;40639;53.170;6.728;2023-07-13T06:12:05;8.55;;;2.50;;
54743;SDS011;40639;53.170;6.728;2023-07-13T06:14:31;9.70;;;2.63;;
54743;SDS011;40639;53.170;6.728;2023-07-13T06:16:57;7.20;;;2.50;;
54743;SDS011;40639;53.170;6.728;2023-07-13T06:19:23;9.15;;;3.00;;
54743;SDS011;40639;53.170;6.728;2023-07-13T06:21:49;10.43;;;3.25;;
54743;SDS011;40639;53.170;6.728;2023-07-13T06:24:16;6.93;;;2.38;;
54743;SDS011;40639;53.170;6.728;2023-07-13T06:26:42;8.38;;;2.95;;
54743;SDS011;40639;53.170;6.728;2023-07-13T06:29:08;11.50;;;3.33;;
54743;SDS011;40639;53.170;6.728;2023-07-13T06:31:34;6.93;;;2.38;;
54743;SDS011;40639;53.170;6.728;2023-07-13T06:34:00;7.93;;;2.85;;
54743;SDS011;40639;53.170;6.728;2023-07-13T06:36:26;7.57;;;2.80;;
54743;SDS011;40639;53.170;6.728;2023-07-13T06:38:53;13.43;;;2.60;;
54743;SDS011;40639;53.170;6.728;2023-07-13T06:41:19;8.35;;;2.83;;
54743;SDS011;40639;53.170;6.728;2023-07-13T06:43:47;6.10;;;2.35;;
54743;SDS011;40639;53.170;6.728;2023-07-13T06:46:13;10.35;;;2.72;;
54743;SDS011;40639;53.170;6.728;2023-07-13T06:48:39;5.47;;;2.05;;
54743;SDS011;40639;53.170;6.728;2023-07-13T06:51:05;8.30;;;2.30;;
54743;SDS011;40639;53.170;6.728;2023-07-13T06:53:32;9.15;;;2.40;;
54743;SDS011;40639;53.170;6.728;2023-07-13T06:55:58;6.07;;;2.25;;
54743;SDS011;40639;53.170;6.728;2023-07-13T06:58:24;5.80;;;2.33;;
54743;SDS011;40639;53.170;6.728;2023-07-13T07:00:50;7.03;;;2.03;;
54743;SDS011;40639;53.170;6.728;2023-07-13T07:03:17;9.82;;;2.58;;
54743;SDS011;40639;53.170;6.728;2023-07-13T07:05:43;6.72;;;2.00;;
54743;SDS011;40639;53.170;6.728;2023-07-13T07:08:10;7.32;;;2.45;;
54743;SDS011;40639;53.170;6.728;2023-07-13T07:10:36;7.97;;;2.03;;
54743;SDS011;40639;53.170;6.728;2023-07-13T07:13:02;5.18;;;1.75;;
54743;SDS011;40639;53.170;6.728;2023-07-13T07:15:29;4.82;;;1.88;;
54743;SDS011;40639;53.170;6.728;2023-07-13T07:17:55;5.63;;;1.98;;
54743;SDS011;40639;53.170;6.728;2023-07-13T07:20:21;5.40;;;2.10;;
54743;SDS011;40639;53.170;6.728;2023-07-13T07:22:47;5.30;;;2.10;;
54743;SDS011;40639;53.170;6.728;2023-07-13T07:25:14;7.15;;;2.00;;
54743;SDS011;40639;53.170;6.728;2023-07-13T07:27:40;8.73;;;2.35;;
54743;SDS011;40639;53.170;6.728;2023-07-13T07:30:06;4.25;;;2.08;;
54743;SDS011;40639;53.170;6.728;2023-07-13T07:32:33;6.15;;;1.70;;
54743;SDS011;40639;53.170;6.728;2023-07-13T07:34:59;6.80;;;2.10;;
54743;SDS011;40639;53.170;6.728;2023-07-13T07:37:25;6.22;;;1.98;;
54743;SDS011;40639;53.170;6.728;2023-07-13T07:39:51;5.88;;;1.88;;
54743;SDS011;40639;53.170;6.728;2023-07-13T07:42:17;8.55;;;2.80;;
54743;SDS011;40639;53.170;6.728;2023-07-13T07:44:44;8.45;;;2.33;;
54743;SDS011;40639;53.170;6.728;2023-07-13T07:47:10;4.45;;;2.05;;
54743;SDS011;40639;53.170;6.728;2023-07-13T07:49:36;3.97;;;2.08;;
54743;SDS011;40639;53.170;6.728;2023-07-13T07:52:03;6.40;;;2.38;;
54743;SDS011;40639;53.170;6.728;2023-07-13T07:54:29;7.03;;;2.40;;
54743;SDS011;40639;53.170;6.728;2023-07-13T07:56:55;4.43;;;2.00;;
54743;SDS011;40639;53.170;6.728;2023-07-13T07:59:21;7.25;;;2.30;;
54743;SDS011;40639;53.170;6.728;2023-07-13T08:01:50;5.50;;;2.20;;
54743;SDS011;40639;53.170;6.728;2023-07-13T08:04:16;5.65;;;1.60;;
54743;SDS011;40639;53.170;6.728;2023-07-13T08:06:43;7.20;;;1.92;;
54743;SDS011;40639;53.170;6.728;2023-07-13T08:09:09;11.20;;;2.95;;
54743;SDS011;40639;53.170;6.728;2023-07-13T08:11:35;4.88;;;1.85;;
54743;SDS011;40639;53.170;6.728;2023-07-13T08:14:01;4.65;;;1.95;;
54743;SDS011;40639;53.170;6.728;2023-07-13T08:16:28;5.00;;;1.73;;
54743;SDS011;40639;53.170;6.728;2023-07-13T08:18:54;2.38;;;1.45;;
54743;SDS011;40639;53.170;6.728;2023-07-13T08:21:20;5.40;;;1.77;;
54743;SDS011;40639;53.170;6.728;2023-07-13T08:23:47;4.85;;;1.95;;
54743;SDS011;40639;53.170;6.728;2023-07-13T08:26:13;4.10;;;1.98;;
54743;SDS011;40639;53.170;6.728;2023-07-13T08:28:39;4.68;;;1.65;;
54743;SDS011;40639;53.170;6.728;2023-07-13T08:31:06;3.53;;;1.48;;
54743;SDS011;40639;53.170;6.728;2023-07-13T08:33:33;3.70;;;1.60;;
54743;SDS011;40639;53.170;6.728;2023-07-13T08:36:00;3.13;;;1.40;;
54743;SDS011;40639;53.170;6.728;2023-07-13T08:38:26;7.18;;;1.98;;
54743;SDS011;40639;53.170;6.728;2023-07-13T08:40:53;3.03;;;1.40;;
54743;SDS011;40639;53.170;6.728;2023-07-13T08:43:25;4.32;;;2.03;;
54743;SDS011;40639;53.170;6.728;2023-07-13T08:45:53;4.05;;;1.67;;
54743;SDS011;40639;53.170;6.728;2023-07-13T08:48:24;6.60;;;1.60;;
54743;SDS011;40639;53.170;6.728;2023-07-13T08:51:04;3.63;;;1.30;;
54743;SDS011;40639;53.170;6.728;2023-07-13T08:53:42;7.55;;;1.77;;
54743;SDS011;40639;53.170;6.728;2023-07-13T08:56:30;4.78;;;1.40;;
54743;SDS011;40639;53.170;6.728;2023-07-13T08:59:18;4.78;;;1.50;;
54743;SDS011;40639;53.170;6.728;2023-07-13T09:04:16;3.70;;;1.58;;
54743;SDS011;40639;53.170;6.728;2023-07-13T09:09:24;4.70;;;1.58;;
54743;SDS011;40639;53.170;6.728;2023-07-13T09:11:56;3.67;;;1.30;;
54743;SDS011;40639;53.170;6.728;2023-07-13T09:17:08;4.45;;;1.77;;
54743;SDS011;40639;53.170;6.728;2023-07-13T09:19:36;3.88;;;1.80;;
54743;SDS011;40639;53.170;6.728;2023-07-13T09:22:03;4.15;;;1.60;;
54743;SDS011;40639;53.170;6.728;2023-07-13T09:27:11;3.57;;;1.77;;
54743;SDS011;40639;53.170;6.728;2023-07-13T09:29:38;7.70;;;1.90;;
54743;SDS011;40639;53.170;6.728;2023-07-13T09:32:09;4.40;;;1.90;;
54743;SDS011;40639;53.170;6.728;2023-07-13T09:34:36;3.33;;;1.70;;
54743;SDS011;40639;53.170;6.728;2023-07-13T09:37:02;20.08;;;3.60;;
54743;SDS011;40639;53.170;6.728;2023-07-13T09:39:33;37.55;;;3.75;;
54743;SDS011;40639;53.170;6.728;2023-07-13T09:47:02;7.68;;;3.50;;
54743;SDS011;40639;53.170;6.728;2023-07-13T09:49:29;4.68;;;3.22;;
54743;SDS011;40639;53.170;6.728;2023-07-13T09:52:00;7.63;;;3.42;;
54743;SDS011;40639;53.170;6.728;2023-07-13T09:54:27;6.68;;;3.42;;
54743;SDS011;40639;53.170;6.728;2023-07-13T09:56:53;8.35;;;3.50;;
54743;SDS011;40639;53.170;6.728;2023-07-13T09:59:21;6.63;;;3.85;;
54743;SDS011;40639;53.170;6.728;2023-07-13T10:01:49;7.68;;;3.85;;
54743;SDS011;40639;53.170;6.728;2023-07-13T10:04:18;6.53;;;3.53;;
54743;SDS011;40639;53.170;6.728;2023-07-13T10:06:45;7.03;;;3.33;;
54743;SDS011;40639;53.170;6.728;2023-07-13T10:09:17;8.15;;;3.28;;
54743;SDS011;40639;53.170;6.728;2023-07-13T10:11:44;4.75;;;2.95;;
54743;SDS011;40639;53.170;6.728;2023-07-13T10:14:20;6.88;;;2.95;;
54743;SDS011;40639;53.170;6.728;2023-07-13T10:16:48;9.18;;;2.90;;
54743;SDS011;40639;53.170;6.728;2023-07-13T10:19:19;6.40;;;3.03;;
54743;SDS011;40639;53.170;6.728;2023-07-13T10:21:52;5.85;;;2.88;;
54743;SDS011;40639;53.170;6.728;2023-07-13T10:24:23;6.20;;;2.80;;
54743;SDS011;40639;53.170;6.728;2023-07-13T10:26:55;5.60;;;2.72;;
54743;SDS011;40639;53.170;6.728;2023-07-13T10:29:22;6.88;;;2.70;;
54743;SDS011;40639;53.170;6.728;2023-07-13T10:31:50;6.40;;;2.75;;
54743;SDS011;40639;53.170;6.728;2023-07-13T10:34:16;4.75;;;2.55;;
54743;SDS011;40639;53.170;6.728;2023-07-13T10:36:44;4.90;;;2.60;;
54743;SDS011;40639;53.170;6.728;2023-07-13T10:39:18;4.82;;;2.90;;
54743;SDS011;40639;53.170;6.728;2023-07-13T10:41:45;5.22;;;2.60;;
54743;SDS011;40639;53.170;6.728;2023-07-13T10:44:32;5.40;;;3.00;;
54743;SDS011;40639;53.170;6.728;2023-07-13T10:47:00;7.05;;;3.30;;
54743;SDS011;40639;53.170;6.728;2023-07-13T10:49:27;6.97;;;3.35;;
54743;SDS011;40639;53.170;6.728;2023-07-13T10:51:54;5.30;;;2.80;;
54743;SDS011;40639;53.170;6.728;2023-07-13T10:54:22;4.90;;;2.55;;
54743;SDS011;40639;53.170;6.728;2023-07-13T10:56:53;3.83;;;2.35;;
54743;SDS011;40639;53.170;6.728;2023-07-13T10:59:27;5.43;;;2.30;;
54743;SDS011;40639;53.170;6.728;2023-07-13T11:04:21;4.90;;;2.45;;
54743;SDS011;40639;53.170;6.728;2023-07-13T11:06:50;5.10;;;2.33;;
54743;SDS011;40639;53.170;6.728;2023-07-13T11:12:08;4.57;;;1.90;;
54743;SDS011;40639;53.170;6.728;2023-07-13T11:14:42;3.08;;;2.15;;
54743;SDS011;40639;53.170;6.728;2023-07-13T11:19:53;4.35;;;1.83;;
54743;SDS011;40639;53.170;6.728;2023-07-13T11:22:24;2.75;;;1.80;;
54743;SDS011;40639;53.170;6.728;2023-07-13T11:25:01;2.50;;;1.95;;
54743;SDS011;40639;53.170;6.728;2023-07-13T11:27:33;3.80;;;2.05;;
54743;SDS011;40639;53.170;6.728;2023-07-13T11:30:36;4.57;;;2.13;;
54743;SDS011;40639;53.170;6.728;2023-07-13T11:35:42;2.65;;;1.30;;
54743;SDS011;40639;53.170;6.728;2023-07-13T11:38:12;6.03;;;1.50;;
54743;SDS011;40639;53.170;6.728;2023-07-13T11:40:39;3.65;;;1.38;;
54743;SDS011;40639;53.170;6.728;2023-07-13T11:43:07;3.92;;;1.17;;
54743;SDS011;40639;53.170;6.728;2023-07-13T11:45:33;5.45;;;1.30;;
54743;SDS011;40639;53.170;6.728;2023-07-13T11:47:59;3.97;;;1.20;;
54743;SDS011;40639;53.170;6.728;2023-07-13T11:50:26;2.67;;;1.33;;
54743;SDS011;40639;53.170;6.728;2023-07-13T11:52:53;4.80;;;1.40;;
54743;SDS011;40639;53.170;6.728;2023-07-13T11:55:21;2.40;;;1.05;;
54743;SDS011;40639;53.170;6.728;2023-07-13T11:57:51;4.28;;;1.27;;
54743;SDS011;40639;53.170;6.728;2023-07-13T12:00:19;1.60;;;1.10;;
54743;SDS011;40639;53.170;6.728;2023-07-13T12:02:51;3.60;;;1.27;;
54743;SDS011;40639;53.170;6.728;2023-07-13T12:05:18;2.55;;;1.25;;
54743;SDS011;40639;53.170;6.728;2023-07-13T12:07:45;3.47;;;1.40;;
54743;SDS011;40639;53.170;6.728;2023-07-13T12:10:22;3.10;;;1.20;;
54743;SDS011;40639;53.170;6.728;2023-07-13T12:15:17;2.70;;;1.42;;
54743;SDS011;40639;53.170;6.728;2023-07-13T12:17:43;3.42;;;1.08;;
54743;SDS011;40639;53.170;6.728;2023-07-13T12:20:17;5.40;;;1.05;;
54743;SDS011;40639;53.170;6.728;2023-07-13T12:22:47;3.63;;;1.10;;
54743;SDS011;40639;53.170;6.728;2023-07-13T12:25:13;2.88;;;1.20;;
54743;SDS011;40639;53.170;6.728;2023-07-13T12:27:40;3.10;;;1.30;;
54743;SDS011;40639;53.170;6.728;2023-07-13T12:30:28;4.28;;;1.35;;
54743;SDS011;40639;53.170;6.728;2023-07-13T12:33:07;5.28;;;1.45;;
54743;SDS011;40639;53.170;6.728;2023-07-13T12:35:38;2.35;;;1.27;;
54743;SDS011;40639;53.170;6.728;2023-07-13T12:38:07;2.35;;;1.10;;
54743;SDS011;40639;53.170;6.728;2023-07-13T12:40:34;1.67;;;1.10;;
54743;SDS011;40639;53.170;6.728;2023-07-13T12:43:04;3.75;;;1.35;;
54743;SDS011;40639;53.170;6.728;2023-07-13T12:45:32;5.47;;;1.55;;
54743;SDS011;40639;53.170;6.728;2023-07-13T12:48:02;3.78;;;1.42;;
54743;SDS011;40639;53.170;6.728;2023-07-13T12:50:37;3.10;;;1.48;;
54743;SDS011;40639;53.170;6.728;2023-07-13T12:53:04;4.60;;;1.40;;
54743;SDS011;40639;53.170;6.728;2023-07-13T12:55:51;3.53;;;1.30;;
54743;SDS011;40639;53.170;6.728;2023-07-13T12:58:39;4.28;;;1.10;;
54743;SDS011;40639;53.170;6.728;2023-07-13T13:01:11;1.75;;;1.27;;
54743;SDS011;40639;53.170;6.728;2023-07-13T13:03:39;3.95;;;1.40;;
54743;SDS011;40639;53.170;6.728;2023-07-13T13:08:33;3.65;;;1.75;;
54743;SDS011;40639;53.170;6.728;2023-07-13T13:10:59;4.93;;;1.42;;
54743;SDS011;40639;53.170;6.728;2023-07-13T13:13:26;5.00;;;2.03;;
54743;SDS011;40639;53.170;6.728;2023-07-13T13:15:52;4.32;;;1.50;;
54743;SDS011;40639;53.170;6.728;2023-07-13T13:18:22;7.50;;;1.58;;
54743;SDS011;40639;53.170;6.728;2023-07-13T13:20:50;4.85;;;1.77;;
54743;SDS011;40639;53.170;6.728;2023-07-13T13:23:18;3.05;;;1.30;;
54743;SDS011;40639;53.170;6.728;2023-07-13T13:25:50;2.55;;;1.20;;
54743;SDS011;40639;53.170;6.728;2023-07-13T13:28:17;4.65;;;1.52;;
54743;SDS011;40639;53.170;6.728;2023-07-13T13:30:44;4.25;;;1.48;;
54743;SDS011;40639;53.170;6.728;2023-07-13T13:33:11;3.03;;;1.27;;
54743;SDS011;40639;53.170;6.728;2023-07-13T13:35:38;4.93;;;1.60;;
54743;SDS011;40639;53.170;6.728;2023-07-13T13:38:14;3.65;;;0.98;;
54743;SDS011;40639;53.170;6.728;2023-07-13T13:40:41;2.90;;;1.33;;
54743;SDS011;40639;53.170;6.728;2023-07-13T13:43:14;3.33;;;1.67;;
54743;SDS011;40639;53.170;6.728;2023-07-13T13:45:41;6.47;;;1.50;;
54743;SDS011;40639;53.170;6.728;2023-07-13T13:48:13;3.15;;;1.33;;
54743;SDS011;40639;53.170;6.728;2023-07-13T13:50:39;4.00;;;1.40;;
54743;SDS011;40639;53.170;6.728;2023-07-13T13:53:08;3.78;;;1.55;;
54743;SDS011;40639;53.170;6.728;2023-07-13T13:55:35;2.83;;;1.38;;
54743;SDS011;40639;53.170;6.728;2023-07-13T13:58:01;5.18;;;1.58;;
54743;SDS011;40639;53.170;6.728;2023-07-13T14:00:27;3.50;;;1.30;;
54743;SDS011;40639;53.170;6.728;2023-07-13T14:02:53;3.28;;;1.50;;
54743;SDS011;40639;53.170;6.728;2023-07-13T14:05:23;2.83;;;1.50;;
54743;SDS011;40639;53.170;6.728;2023-07-13T14:07:51;5.07;;;1.80;;
54743;SDS011;40639;53.170;6.728;2023-07-13T14:10:18;3.17;;;1.30;;
54743;SDS011;40639;53.170;6.728;2023-07-13T14:12:48;6.75;;;1.77;;
54743;SDS011;40639;53.170;6.728;2023-07-13T14:15:26;5.78;;;1.92;;
54743;SDS011;40639;53.170;6.728;2023-07-13T14:17:53;4.28;;;1.60;;
54743;SDS011;40639;53.170;6.728;2023-07-13T14:20:20;4.18;;;1.50;;
54743;SDS011;40639;53.170;6.728;2023-07-13T14:22:47;3.60;;;1.33;;
54743;SDS011;40639;53.170;6.728;2023-07-13T14:25:14;7.50;;;1.63;;
54743;SDS011;40639;53.170;6.728;2023-07-13T14:27:41;3.33;;;1.40;;
54743;SDS011;40639;53.170;6.728;2023-07-13T14:30:17;5.13;;;2.08;;
54743;SDS011;40639;53.170;6.728;2023-07-13T14:32:43;4.72;;;1.58;;
54743;SDS011;40639;53.170;6.728;2023-07-13T14:35:14;6.50;;;2.08;;
54743;SDS011;40639;53.170;6.728;2023-07-13T14:37:40;3.70;;;1.58;;
54743;SDS011;40639;53.170;6.728;2023-07-13T14:42:39;2.70;;;1.45;;
54743;SDS011;40639;53.170;6.728;2023-07-13T14:45:05;5.93;;;1.80;;
54743;SDS011;40639;53.170;6.728;2023-07-13T14:47:32;4.78;;;1.80;;
54743;SDS011;40639;53.170;6.728;2023-07-13T14:49:58;3.92;;;1.63;;
54743;SDS011;40639;53.170;6.728;2023-07-13T14:52:24;4.53;;;1.55;;
54743;SDS011;40639;53.170;6.728;2023-07-13T14:54:51;3.72;;;1.67;;
54743;SDS011;40639;53.170;6.728;2023-07-13T14:57:18;5.85;;;1.70;;
54743;SDS011;40639;53.170;6.728;2023-07-13T14:59:45;4.30;;;1.60;;
54743;SDS011;40639;53.170;6.728;2023-07-13T15:02:19;4.63;;;1.70;;
54743;SDS011;40639;53.170;6.728;2023-07-13T15:04:49;3.75;;;1.60;;
54743;SDS011;40639;53.170;6.728;2023-07-13T15:07:16;2.35;;;1.10;;
54743;SDS011;40639;53.170;6.728;2023-07-13T15:09:44;2.92;;;1.30;;
54743;SDS011;40639;53.170;6.728;2023-07-13T15:12:10;2.63;;;1.50;;
54743;SDS011;40639;53.170;6.728;2023-07-13T15:14:36;5.57;;;1.40;;
54743;SDS011;40639;53.170;6.728;2023-07-13T15:17:03;2.75;;;1.40;;
54743;SDS011;40639;53.170;6.728;2023-07-13T15:19:30;5.80;;;1.63;;
54743;SDS011;40639;53.170;6.728;2023-07-13T15:21:56;3.78;;;1.55;;
54743;SDS011;40639;53.170;6.728;2023-07-13T15:24:23;4.32;;;1.90;;
54743;SDS011;40639;53.170;6.728;2023-07-13T15:26:49;3.70;;;1.25;;
54743;SDS011;40639;53.170;6.728;2023-07-13T15:29:16;3.97;;;1.60;;